KOCW/OCW METAR and TAF weather

Enter ICAO airport designator
Station Type Date Time Source
KOCW METAR 2019/08/18 09:55 UTC NOAA

KOCW 180955Z AUTO 00000KT 10SM SCT028 OVC038 23/22 A2998 RMK AO2 T02280222


Station Type Date Time Source
KOCW Decoded METAR 2019/08/18 09:55 UTC NOAA

Station name not available
Aug 18, 2019 - 05:55 AM EDT / 2019.08.18 0955 UTC
Wind: Calm:0
Visibility: 10 mile(s):0
Sky conditions: overcast
Temperature: 73.0 F (22.8 C)
Dew Point: 72.0 F (22.2 C)
Relative Humidity: 96%
Pressure (altimeter): 29.98 in. Hg (1015 hPa)
ob: KOCW 180955Z AUTO 00000KT 10SM SCT028 OVC038 23/22 A2998 RMK AO2 T02280222
cycle: 10

Station Type Date Time Source
KOCW TAF UTC NOAA

Error!

Example: see airport list